Portada
METAR-TAF:

METAR-TAF

Aeropuertos :

Olsztyn-Mazury

Olsztyn, Polonia

latitud: 53-28-55N, longitud: 20-56-16E, altitud: 141 m

Observación

El informe se hizo hace 10 minutos, a las 23:30 UTC
Viento 4 kt del oeste-noroeste
Temperatura 7°C
Humedad 100%
Presión 1021 hPa
Visibilidad 10 km o más
sin nubes por debajo de 1500 m y sin presencia de cumulonimbus.

METAR: EPSY 212330Z 29004KT CAVOK 07/07 Q1021

Hora: 01:40 (23:40 UTC)

Pronóstico

El informe se hizo hace 10 minutos, a las 23:30 UTC
Pronóstico válido del 22 a las 00 UTC al 22 a las 09 UTC
Viento 5 kt del oeste-noroeste
Visibilidad 10 km o más
Nubes dispersas a una altura de 4000 ft
Probabilidad 40% :
Temporalmente
del 22 a las 00 UTC al 22 a las 03 UTC
Cielo nuboso a una altura de 1400 ft
lluvia ligera

TAF: EPSY 212330Z 2200/2209 30005KT 9999 SCT040 PROB40 TEMPO 2200/2203 -RA BKN014

Observaciones y pronósticos meteorológicos de más de 4000 aeropuertos (mensajes METAR y TAF).

Los puntos amarillos y rojos representan las estaciones disponibles.

Ponga el ratón en el punto deseado para ver el nombre de la estación.

Haga clic para ver las observaciones y los pronósticos meteorológicos.

Para cambiar el mapa : haga clic en los botones verdes con una cruz de color negro para hacer un zoom, en el botón verde con un guión para alejar o en las flechas verdes para mapas adyacentes.


METAR-TAF: